Flight Track Log - Related Links

Times and Time Zones

All times are in EDT time to prevent confusion due to time zone crossing. See the UPS1121 flight status page for this flight to view local times or setup timezone preferences in your user account.

Time Position Orientation Groundspeed Altitude Reporting Facility
EDT Latitude Longitude Course Direction KTS MPH feet Rate Location/Type
Fri 11:07:14 PM 41.9458 -72.7025 280° West 160 184 1,300  Level Boston Center
Fri 11:08:27 PM 41.9561 -72.7778 280° West 160 184 3,800 2,030 Climbing Boston Center
Fri 11:09:27 PM 41.9161 -72.8419 230° Southwest 187 215 5,800 2,850 Climbing Boston Center
Fri 11:10:27 PM 41.8678 -72.9558 240° Southwest 245 282 9,500 2,800 Climbing Boston Center
Fri 11:11:27 PM 41.8547 -73.0589 260° West 301 346 11,400 2,100 Climbing Boston Center
Fri 11:12:27 PM 41.8331 -73.2036 259° West 352 405 13,700 2,300 Climbing Boston Center
Fri 11:13:27 PM 41.8156 -73.3286 259° West 374 430 16,000 2,500 Climbing Boston Center
Fri 11:14:27 PM 41.7892 -73.4786 257° West 385 443 18,700 2,350 Climbing Boston Center
Fri 11:15:27 PM 41.7483 -73.6172 248° West 391 450 20,700 1,750 Climbing Boston Center
Fri 11:16:27 PM 41.6764 -73.7131 225° Southwest 398 458 22,200 1,561 Climbing Boston Center
Fri 11:18:43 PM 41.4400 -73.9314 215° Southwest 463 533 25,800 1,662 Climbing New York Center
Fri 11:19:42 PM 41.3189 -74.0225 209° Southwest 490 564 27,600 1,750 Climbing New York Center
Fri 11:20:43 PM 41.1914 -74.1100 207° Southwest 505 581 29,300 2,000 Climbing New York Center
Fri 11:21:42 PM 41.0761 -74.2144 214° Southwest 512 589 31,600 2,100 Climbing New York Center
Fri 11:22:43 PM 41.0047 -74.3647 238° Southwest 483 556 33,500 1,200 Climbing New York Center
Fri 11:23:42 PM 40.9378 -74.5122 239° Southwest 483 556 34,000 250 Climbing New York Center
Fri 11:24:43 PM 40.8700 -74.6706 241° Southwest 488 562 34,000  Level New York Center
Fri 11:25:41 PM 40.7936 -74.8414 239° Southwest 494 568 34,000  Level New York Center
Fri 11:26:41 PM 40.7236 -74.9961 239° Southwest 499 574 34,000  Level New York Center
Fri 11:27:42 PM 40.6553 -75.1506 240° Southwest 493 567 34,000  Level New York Center
Fri 11:28:43 PM 40.5853 -75.2992 238° Southwest 493 567 34,000  Level New York Center
Fri 11:29:43 PM 40.5142 -75.4608 240° Southwest 498 573 34,000  Level New York Center
Fri 11:30:43 PM 40.4436 -75.6117 238° Southwest 498 573 34,000  Level New York Center
Fri 11:31:42 PM 40.3747 -75.7622 239° Southwest 498 573 34,000  Level New York Center
Fri 11:32:42 PM 40.3042 -75.9014 236° Southwest 500 575 34,000  Level New York Center
Fri 11:33:42 PM 40.2306 -76.0561 238° Southwest 507 583 34,000  Level New York Center
Fri 11:34:43 PM 40.1586 -76.2219 240° Southwest 502 578 34,000  Level New York Center
Fri 11:35:42 PM 40.0875 -76.3575 236° Southwest 502 578 34,000  Level New York Center
Fri 11:36:41 PM 40.0339 -76.5186 247° West 490 564 34,000  Level New York Center
Fri 11:39:01 PM 39.9317 -76.8928 250° West 484 557 34,000  Level Washington Center
Fri 11:40:00 PM 39.8881 -77.0597 251° West 479 551 34,000  Level Washington Center
Fri 11:41:01 PM 39.8422 -77.2236 250° West 479 551 34,000  Level Washington Center
Fri 11:42:00 PM 39.8003 -77.3819 251° West 484 557 34,000  Level Washington Center
Fri 11:43:00 PM 39.7561 -77.5456 251° West 484 557 34,000  Level Washington Center
Fri 11:44:00 PM 39.7097 -77.7061 249° West 484 557 34,000  Level Washington Center
Fri 11:45:02 PM 39.6650 -77.8694 250° West 484 557 34,000  Level Washington Center
Fri 11:46:01 PM 39.6203 -78.0269 250° West 484 557 34,000  Level Washington Center
Fri 11:47:02 PM 39.5753 -78.1869 250° West 484 557 34,000  Level Washington Center
Fri 11:48:01 PM 39.5300 -78.3467 250° West 479 551 34,000  Level Washington Center
Fri 11:49:02 PM 39.4847 -78.5036 250° West 479 551 34,000  Level Washington Center
Fri 11:50:02 PM 39.4414 -78.6578 250° West 479 551 34,000  Level Washington Center
Fri 11:51:00 PM 39.3978 -78.8117 250° West 469 540 34,000  Level Washington Center
Fri 11:52:01 PM 39.3517 -78.9681 249° West 469 540 34,000  Level Washington Center
Fri 11:53:01 PM 39.3078 -79.1242 250° West 468 539 34,000  Level Washington Center
Fri 11:54:00 PM 39.2589 -79.2908 249° West 462 532 34,000  Level Washington Center
Fri 11:55:00 PM 39.2122 -79.4492 249° West 462 532 34,000  Level Washington Center
Fri 11:56:01 PM 39.1675 -79.6047 250° West 462 532 34,000  Level Washington Center
Fri 11:56:59 PM 39.1206 -79.7600 249° West 467 537 34,000  Level Washington Center
Fri 11:58:02 PM 39.0733 -79.9150 249° West 467 537 34,000  Level Washington Center
Fri 11:58:40 PM 39.0389 -80.0153 246° West 467 537 34,000  Level Indianapolis Center
Fri 11:59:41 PM 38.9900 -80.1728 248° West 466 536 34,000  Level Indianapolis Center
Sat 12:00:42 AM 38.9428 -80.3289 249° West 468 539 34,000  Level Indianapolis Center
Sat 12:01:42 AM 38.8942 -80.4850 248° West 470 541 34,000  Level Indianapolis Center
Sat 12:02:43 AM 38.8472 -80.6389 249° West 464 534 34,000  Level Indianapolis Center
Sat 12:03:44 AM 38.7975 -80.7944 248° West 470 541 34,000  Level Indianapolis Center
Sat 12:04:45 AM 38.7494 -80.9494 248° West 469 540 34,000  Level Indianapolis Center
Sat 12:05:45 AM 38.7003 -81.1036 248° West 466 536 34,000  Level Indianapolis Center
Sat 12:06:46 AM 38.6517 -81.2586 248° West 466 536 34,000  Level Indianapolis Center
Sat 12:07:47 AM 38.6003 -81.4169 247° West 472 543 34,000  Level Indianapolis Center
Sat 12:08:48 AM 38.5489 -81.5814 248° West 480 552 34,000  Level Indianapolis Center
Sat 12:09:48 AM 38.4986 -81.7400 248° West 475 547 34,000  Level Indianapolis Center
Sat 12:10:49 AM 38.4475 -81.8972 247° West 478 550 34,000  Level Indianapolis Center
Sat 12:11:50 AM 38.3967 -82.0533 247° West 475 547 34,000  Level Indianapolis Center
Sat 12:12:50 AM 38.3447 -82.2092 247° West 476 548 34,000  Level Indianapolis Center
Sat 12:13:51 AM 38.2925 -82.3656 247° West 479 551 34,000  Level Indianapolis Center
Sat 12:14:52 AM 38.2403 -82.5333 248° West 480 552 34,000  Level Indianapolis Center
Sat 12:15:53 AM 38.2006 -82.6906 252° West 470 541 34,000  Level Indianapolis Center
Sat 12:16:53 AM 38.1664 -82.8497 255° West 467 537 34,000  Level Indianapolis Center
Sat 12:17:54 AM 38.1306 -82.9981 253° West 444 511 34,000  Level Indianapolis Center
Sat 12:18:54 AM 38.0981 -83.1419 254° West 428 493 34,000 -50 Level Indianapolis Center
Sat 12:19:55 AM 38.0639 -83.2875 253° West 429 494 33,900 -738 Descending Indianapolis Center
Sat 12:20:56 AM 38.0297 -83.4306 253° West 425 489 32,500 -1,289 Descending Indianapolis Center
Sat 12:21:56 AM 37.9956 -83.5761 253° West 430 495 31,300 -1,091 Descending Indianapolis Center
Sat 12:22:57 AM 37.9603 -83.7186 253° West 426 490 30,300 -992 Descending Indianapolis Center
Sat 12:23:57 AM 37.9269 -83.8575 253° West 416 479 29,300 -992 Descending Indianapolis Center
Sat 12:24:58 AM 37.8953 -83.9881 253° West 395 455 28,300 -1,033 Descending Indianapolis Center
Sat 12:25:59 AM 37.8642 -84.1150 253° West 380 437 27,200 -1,438 Descending Indianapolis Center
Sat 12:26:59 AM 37.8336 -84.2392 253° West 372 428 25,400 -1,785 Descending Indianapolis Center
Sat 12:28:00 AM 37.8044 -84.3614 253° West 363 418 23,600 -1,983 Descending Indianapolis Center
Sat 12:29:00 AM 37.7739 -84.4797 252° West 357 411 21,400 -2,479 Descending Indianapolis Center
Sat 12:30:01 AM 37.7450 -84.5933 252° West 339 390 18,600 -2,628 Descending Indianapolis Center
Sat 12:31:01 AM 37.7189 -84.7017 253° West 327 376 16,100 -2,727 Descending Indianapolis Center
Sat 12:32:02 AM 37.6894 -84.8214 253° West 306 352 13,100 -2,579 Descending Indianapolis Center
Sat 12:33:02 AM 37.6667 -84.9483 257° West 373 429 10,900 -1,537 Descending Indianapolis Center
Sat 12:34:03 AM 37.7247 -85.0519 305° West 364 419 10,000 -446 Descending Indianapolis Center
Sat 12:35:03 AM 37.7917 -85.1436 313° West 352 405 10,000 -298 Level Indianapolis Center
Sat 12:36:04 AM 37.8653 -85.1886 334° Northwest 303 349 9,400 -793 Descending Indianapolis Center
Sat 12:37:04 AM 37.9236 -85.2167 339° North 284 327 8,400 -1,388 Descending Indianapolis Center
Sat 12:38:05 AM 38.0069 -85.2581 339° North 271 312 6,600 -1,190 Descending Indianapolis Center
Sat 12:39:05 AM 38.0769 -85.2961 337° Northwest 272 313 6,000 -843 Descending Indianapolis Center
Sat 12:40:06 AM 38.1053 -85.3731 295° West 278 320 4,900 -1,190 Descending Indianapolis Center
Sat 12:41:06 AM 38.0758 -85.4636 248° West 276 318 3,600 -942 Descending Indianapolis Center
Sat 12:42:07 AM 38.0508 -85.5525 250° West 272 313 3,000 -298 Descending Indianapolis Center
Sat 12:43:07 AM 38.0289 -85.6239 249° West 246 283 3,000 -298 Level Indianapolis Center
Sat 12:44:08 AM 38.0597 -85.6783 306° West 219 252 2,400 -595 Descending Indianapolis Center
Sat 12:45:08 AM 38.1017 -85.7019 336° Northwest 185 213 1,800 -600 Descending Indianapolis Center
Sat 12:47:00 AM 38.1667 -85.7333 208° Southwest  Level FlightAware Approximate
Sat 12:54:00 AM 38.1741 -85.7365 208° Southwest  Level Estimated

Login

Don't have an account? Register now (free) for customized features, flight alerts, and more!